sensor_id;sensor_type;location;lat;lon;timestamp;pressure;altitude;pressure_sealevel;temperature;humidity
40994;BME280;26722;43.212;27.932;2023-02-12T00:01:46;55363.13;;;-146.72;44.98
40994;BME280;26722;43.212;27.932;2023-02-12T00:04:11;55358.91;;;-146.72;44.89
40994;BME280;26722;43.212;27.932;2023-02-12T00:06:37;55365.22;;;-146.72;45.10
40994;BME280;26722;43.212;27.932;2023-02-12T00:09:03;55354.66;;;-146.72;44.95
40994;BME280;26722;43.212;27.932;2023-02-12T00:11:29;55369.44;;;-146.72;44.88
40994;BME280;26722;43.212;27.932;2023-02-12T00:13:55;55361.00;;;-146.72;44.98
40994;BME280;26722;43.212;27.932;2023-02-12T00:16:23;55361.00;;;-146.72;44.90
40994;BME280;26722;43.212;27.932;2023-02-12T00:18:53;55352.56;;;-146.72;44.46
40994;BME280;26722;43.212;27.932;2023-02-12T00:21:20;55373.69;;;-146.72;44.98
40994;BME280;26722;43.212;27.932;2023-02-12T00:23:46;55335.66;;;-146.72;44.53
40994;BME280;26722;43.212;27.932;2023-02-12T00:26:14;55365.22;;;-146.72;44.22
40994;BME280;26722;43.212;27.932;2023-02-12T00:28:40;55325.13;;;-146.72;44.27
40994;BME280;26722;43.212;27.932;2023-02-12T00:31:16;55344.13;;;-146.72;44.53
40994;BME280;26722;43.212;27.932;2023-02-12T00:33:42;55386.34;;;-146.72;44.19
40994;BME280;26722;43.212;27.932;2023-02-12T00:36:08;55352.56;;;-146.72;44.19
40994;BME280;26722;43.212;27.932;2023-02-12T00:38:35;55352.56;;;-146.72;44.20
40994;BME280;26722;43.212;27.932;2023-02-12T00:41:00;55350.44;;;-146.72;44.35
40994;BME280;26722;43.212;27.932;2023-02-12T00:43:26;55371.56;;;-146.72;44.43
40994;BME280;26722;43.212;27.932;2023-02-12T00:45:51;55333.56;;;-146.72;44.45
40994;BME280;26722;43.212;27.932;2023-02-12T00:48:17;55392.69;;;-146.72;44.71
40994;BME280;26722;43.212;27.932;2023-02-12T00:50:47;55352.56;;;-146.72;44.79
40994;BME280;26722;43.212;27.932;2023-02-12T00:53:13;55354.66;;;-146.72;44.55
40994;BME280;26722;43.212;27.932;2023-02-12T00:55:39;55369.44;;;-146.72;44.43
40994;BME280;26722;43.212;27.932;2023-02-12T00:58:05;55346.22;;;-146.72;44.80
40994;BME280;26722;43.212;27.932;2023-02-12T01:00:30;55350.44;;;-146.72;44.76
40994;BME280;26722;43.212;27.932;2023-02-12T01:02:56;55358.91;;;-146.72;44.45
40994;BME280;26722;43.212;27.932;2023-02-12T01:05:22;55352.56;;;-146.72;44.55
40994;BME280;26722;43.212;27.932;2023-02-12T01:07:49;55339.91;;;-146.72;44.12
40994;BME280;26722;43.212;27.932;2023-02-12T01:10:15;55344.13;;;-146.72;44.35
40994;BME280;26722;43.212;27.932;2023-02-12T01:12:41;55365.22;;;-146.72;45.20
40994;BME280;26722;43.212;27.932;2023-02-12T01:15:07;55365.22;;;-146.72;44.08
40994;BME280;26722;43.212;27.932;2023-02-12T01:17:36;55365.22;;;-146.72;44.05
40994;BME280;26722;43.212;27.932;2023-02-12T01:20:02;55331.44;;;-146.72;44.11
40994;BME280;26722;43.212;27.932;2023-02-12T01:22:30;55354.66;;;-146.72;44.50
40994;BME280;26722;43.212;27.932;2023-02-12T01:24:55;55331.44;;;-146.72;44.50
40994;BME280;26722;43.212;27.932;2023-02-12T01:27:21;55339.91;;;-146.72;44.77
40994;BME280;26722;43.212;27.932;2023-02-12T01:29:46;55361.00;;;-146.72;44.92
40994;BME280;26722;43.212;27.932;2023-02-12T01:32:12;55356.78;;;-146.72;44.82
40994;BME280;26722;43.212;27.932;2023-02-12T01:34:37;55350.44;;;-146.72;44.82
40994;BME280;26722;43.212;27.932;2023-02-12T01:37:03;55352.56;;;-146.72;45.08
40994;BME280;26722;43.212;27.932;2023-02-12T01:39:28;55369.44;;;-146.72;45.18
40994;BME280;26722;43.212;27.932;2023-02-12T01:41:54;55356.78;;;-146.72;45.55
40994;BME280;26722;43.212;27.932;2023-02-12T01:44:22;55333.56;;;-146.72;45.37
40994;BME280;26722;43.212;27.932;2023-02-12T01:46:59;55327.22;;;-146.72;45.21
40994;BME280;26722;43.212;27.932;2023-02-12T01:49:43;55369.44;;;-146.72;44.60
40994;BME280;26722;43.212;27.932;2023-02-12T01:52:26;55361.00;;;-146.72;44.98
40994;BME280;26722;43.212;27.932;2023-02-12T01:54:53;55367.34;;;-146.72;45.58
40994;BME280;26722;43.212;27.932;2023-02-12T01:57:21;55348.34;;;-146.72;45.80
40994;BME280;26722;43.212;27.932;2023-02-12T01:59:48;55335.66;;;-146.72;45.63
40994;BME280;26722;43.212;27.932;2023-02-12T02:02:16;55348.34;;;-146.72;45.77
40994;BME280;26722;43.212;27.932;2023-02-12T02:04:51;55346.22;;;-146.72;45.83
40994;BME280;26722;43.212;27.932;2023-02-12T02:07:19;55350.44;;;-146.72;46.19
40994;BME280;26722;43.212;27.932;2023-02-12T02:09:44;55356.78;;;-146.72;46.21
40994;BME280;26722;43.212;27.932;2023-02-12T02:12:10;55380.00;;;-146.72;46.56
40994;BME280;26722;43.212;27.932;2023-02-12T02:14:56;55361.00;;;-146.72;46.85
40994;BME280;26722;43.212;27.932;2023-02-12T02:26:27;55375.78;;;-146.72;47.70
40994;BME280;26722;43.212;27.932;2023-02-12T02:31:56;55375.78;;;-146.72;47.66
40994;BME280;26722;43.212;27.932;2023-02-12T02:37:45;55373.69;;;-146.72;47.22
40994;BME280;26722;43.212;27.932;2023-02-12T02:40:22;55367.34;;;-146.72;47.29
40994;BME280;26722;43.212;27.932;2023-02-12T02:43:05;55339.91;;;-146.72;46.87
40994;BME280;26722;43.212;27.932;2023-02-12T02:45:51;55367.34;;;-146.72;46.56
40994;BME280;26722;43.212;27.932;2023-02-12T02:48:34;55373.69;;;-146.72;46.59
40994;BME280;26722;43.212;27.932;2023-02-12T02:51:08;55344.13;;;-146.72;46.82
40994;BME280;26722;43.212;27.932;2023-02-12T02:53:58;55352.56;;;-146.72;46.98
40994;BME280;26722;43.212;27.932;2023-02-12T02:56:26;55346.22;;;-146.72;47.16
40994;BME280;26722;43.212;27.932;2023-02-12T02:59:07;55365.22;;;-146.72;47.01
40994;BME280;26722;43.212;27.932;2023-02-12T03:01:42;55377.91;;;-146.72;46.45
40994;BME280;26722;43.212;27.932;2023-02-12T03:04:13;55348.34;;;-146.72;46.38
40994;BME280;26722;43.212;27.932;2023-02-12T03:06:58;55348.34;;;-146.72;46.35
40994;BME280;26722;43.212;27.932;2023-02-12T03:09:30;55344.13;;;-146.72;46.50
40994;BME280;26722;43.212;27.932;2023-02-12T03:12:01;55352.56;;;-146.72;46.99
40994;BME280;26722;43.212;27.932;2023-02-12T03:14:51;55358.91;;;-146.72;46.59
40994;BME280;26722;43.212;27.932;2023-02-12T03:17:21;55377.91;;;-146.72;46.60
40994;BME280;26722;43.212;27.932;2023-02-12T03:19:55;55394.78;;;-146.72;46.95
40994;BME280;26722;43.212;27.932;2023-02-12T03:22:45;55348.34;;;-146.72;47.15
40994;BME280;26722;43.212;27.932;2023-02-12T03:25:20;55361.00;;;-146.72;47.31
40994;BME280;26722;43.212;27.932;2023-02-12T03:27:54;55358.91;;;-146.72;47.34
40994;BME280;26722;43.212;27.932;2023-02-12T03:30:23;55356.78;;;-146.72;47.48
40994;BME280;26722;43.212;27.932;2023-02-12T03:33:43;55365.22;;;-146.72;47.77
40994;BME280;26722;43.212;27.932;2023-02-12T03:36:00;55348.34;;;-146.72;47.92
40994;BME280;26722;43.212;27.932;2023-02-12T03:38:40;55356.78;;;-146.72;47.29
40994;BME280;26722;43.212;27.932;2023-02-12T03:46:18;55335.66;;;-146.72;47.92
40994;BME280;26722;43.212;27.932;2023-02-12T03:51:51;55361.00;;;-146.72;47.10
40994;BME280;26722;43.212;27.932;2023-02-12T03:54:19;55335.66;;;-146.72;47.40
40994;BME280;26722;43.212;27.932;2023-02-12T03:57:00;55354.66;;;-146.72;47.57
40994;BME280;26722;43.212;27.932;2023-02-12T03:59:28;55354.66;;;-146.72;48.17
40994;BME280;26722;43.212;27.932;2023-02-12T04:01:57;55371.56;;;-146.72;48.55
40994;BME280;26722;43.212;27.932;2023-02-12T04:04:24;55356.78;;;-146.72;47.78
40994;BME280;26722;43.212;27.932;2023-02-12T04:06:50;55371.56;;;-146.72;47.51
40994;BME280;26722;43.212;27.932;2023-02-12T04:09:17;55346.22;;;-146.72;48.00
40994;BME280;26722;43.212;27.932;2023-02-12T04:14:58;55365.22;;;-146.72;48.10
40994;BME280;26722;43.212;27.932;2023-02-12T04:28:58;55373.69;;;-146.72;48.43
40994;BME280;26722;43.212;27.932;2023-02-12T04:33:59;55358.91;;;-146.72;48.57
40994;BME280;26722;43.212;27.932;2023-02-12T04:36:33;55380.00;;;-146.72;48.34
40994;BME280;26722;43.212;27.932;2023-02-12T04:39:07;55380.00;;;-146.72;48.47
40994;BME280;26722;43.212;27.932;2023-02-12T04:41:37;55352.56;;;-146.72;48.35
40994;BME280;26722;43.212;27.932;2023-02-12T04:44:21;55350.44;;;-146.72;48.05
40994;BME280;26722;43.212;27.932;2023-02-12T04:46:48;55382.13;;;-146.72;48.07
40994;BME280;26722;43.212;27.932;2023-02-12T04:49:16;55375.78;;;-146.72;48.35
40994;BME280;26722;43.212;27.932;2023-02-12T04:51:42;55356.78;;;-146.72;48.19
40994;BME280;26722;43.212;27.932;2023-02-12T04:54:07;55350.44;;;-146.72;48.26
40994;BME280;26722;43.212;27.932;2023-02-12T04:56:33;55367.34;;;-146.72;48.04
40994;BME280;26722;43.212;27.932;2023-02-12T04:58:58;55371.56;;;-146.72;48.17
40994;BME280;26722;43.212;27.932;2023-02-12T05:01:24;55371.56;;;-146.72;48.29
40994;BME280;26722;43.212;27.932;2023-02-12T05:03:51;55339.91;;;-146.72;48.42
40994;BME280;26722;43.212;27.932;2023-02-12T05:06:16;55369.44;;;-146.72;48.58
40994;BME280;26722;43.212;27.932;2023-02-12T05:08:42;55352.56;;;-146.72;48.60
40994;BME280;26722;43.212;27.932;2023-02-12T05:11:08;55356.78;;;-146.72;48.49
40994;BME280;26722;43.212;27.932;2023-02-12T05:13:34;55373.69;;;-146.72;48.63
40994;BME280;26722;43.212;27.932;2023-02-12T05:16:06;55350.44;;;-146.72;48.91
40994;BME280;26722;43.212;27.932;2023-02-12T05:18:33;55373.69;;;-146.72;48.95
40994;BME280;26722;43.212;27.932;2023-02-12T05:21:01;55365.22;;;-146.72;49.28
40994;BME280;26722;43.212;27.932;2023-02-12T05:23:34;55377.91;;;-146.72;49.46
40994;BME280;26722;43.212;27.932;2023-02-12T05:26:03;55367.34;;;-146.72;49.58
40994;BME280;26722;43.212;27.932;2023-02-12T05:28:29;55344.13;;;-146.72;50.04
40994;BME280;26722;43.212;27.932;2023-02-12T05:31:00;55358.91;;;-146.72;50.30
40994;BME280;26722;43.212;27.932;2023-02-12T05:33:26;55356.78;;;-146.72;50.50
40994;BME280;26722;43.212;27.932;2023-02-12T05:35:51;55352.56;;;-146.72;50.67
40994;BME280;26722;43.212;27.932;2023-02-12T05:38:17;55348.34;;;-146.72;50.90
40994;BME280;26722;43.212;27.932;2023-02-12T05:40:43;55350.44;;;-146.72;50.70
40994;BME280;26722;43.212;27.932;2023-02-12T05:43:08;55350.44;;;-146.72;50.85
40994;BME280;26722;43.212;27.932;2023-02-12T05:45:34;55352.56;;;-146.72;50.82
40994;BME280;26722;43.212;27.932;2023-02-12T05:47:59;55339.91;;;-146.72;50.96
40994;BME280;26722;43.212;27.932;2023-02-12T05:50:24;55344.13;;;-146.72;50.98
40994;BME280;26722;43.212;27.932;2023-02-12T05:52:50;55335.66;;;-146.72;50.77
40994;BME280;26722;43.212;27.932;2023-02-12T05:55:15;55354.66;;;-146.72;50.64
40994;BME280;26722;43.212;27.932;2023-02-12T05:57:41;55361.00;;;-146.72;50.76
40994;BME280;26722;43.212;27.932;2023-02-12T06:00:08;55346.22;;;-146.72;50.84
40994;BME280;26722;43.212;27.932;2023-02-12T06:02:34;55354.66;;;-146.72;50.88
40994;BME280;26722;43.212;27.932;2023-02-12T06:04:59;55350.44;;;-146.72;50.91
40994;BME280;26722;43.212;27.932;2023-02-12T06:07:25;55352.56;;;-146.72;50.83
40994;BME280;26722;43.212;27.932;2023-02-12T06:09:50;55356.78;;;-146.72;51.38
40994;BME280;26722;43.212;27.932;2023-02-12T06:12:16;55361.00;;;-146.72;51.53
40994;BME280;26722;43.212;27.932;2023-02-12T06:14:41;55344.13;;;-146.72;51.66
40994;BME280;26722;43.212;27.932;2023-02-12T06:17:07;55346.22;;;-146.72;52.09
40994;BME280;26722;43.212;27.932;2023-02-12T06:19:32;55316.66;;;-146.72;52.16
40994;BME280;26722;43.212;27.932;2023-02-12T06:21:58;55333.56;;;-146.72;52.04
40994;BME280;26722;43.212;27.932;2023-02-12T06:24:23;55327.22;;;-146.72;52.18
40994;BME280;26722;43.212;27.932;2023-02-12T06:26:50;55323.00;;;-146.72;52.43
40994;BME280;26722;43.212;27.932;2023-02-12T06:29:16;55325.13;;;-146.72;52.37
40994;BME280;26722;43.212;27.932;2023-02-12T06:31:42;55348.34;;;-146.72;51.92
40994;BME280;26722;43.212;27.932;2023-02-12T06:34:09;55323.00;;;-146.72;52.15
40994;BME280;26722;43.212;27.932;2023-02-12T06:36:37;55337.78;;;-146.72;51.95
40994;BME280;26722;43.212;27.932;2023-02-12T06:39:04;55314.56;;;-146.72;52.01
40994;BME280;26722;43.212;27.932;2023-02-12T06:41:29;55348.34;;;-146.72;52.19
40994;BME280;26722;43.212;27.932;2023-02-12T06:43:55;55325.13;;;-146.72;51.97
40994;BME280;26722;43.212;27.932;2023-02-12T06:46:21;55337.78;;;-146.72;51.92
40994;BME280;26722;43.212;27.932;2023-02-12T06:48:47;55310.34;;;-146.72;51.81
40994;BME280;26722;43.212;27.932;2023-02-12T06:51:14;55310.34;;;-146.72;51.52
40994;BME280;26722;43.212;27.932;2023-02-12T06:53:41;55331.44;;;-146.72;51.76
40994;BME280;26722;43.212;27.932;2023-02-12T06:56:09;55314.56;;;-146.72;51.93
40994;BME280;26722;43.212;27.932;2023-02-12T06:58:39;55323.00;;;-146.72;52.01
40994;BME280;26722;43.212;27.932;2023-02-12T07:01:10;55308.22;;;-146.72;52.00
40994;BME280;26722;43.212;27.932;2023-02-12T07:03:39;55329.34;;;-146.72;51.94
40994;BME280;26722;43.212;27.932;2023-02-12T07:06:05;55314.56;;;-146.72;51.62
40994;BME280;26722;43.212;27.932;2023-02-12T07:08:30;55325.13;;;-146.72;51.86
40994;BME280;26722;43.212;27.932;2023-02-12T07:10:56;55301.88;;;-146.72;51.83
40994;BME280;26722;43.212;27.932;2023-02-12T07:13:21;55301.88;;;-146.72;51.92
40994;BME280;26722;43.212;27.932;2023-02-12T07:15:46;55325.13;;;-146.72;51.66
40994;BME280;26722;43.212;27.932;2023-02-12T07:18:12;55327.22;;;-146.72;51.77
40994;BME280;26722;43.212;27.932;2023-02-12T07:20:37;55293.44;;;-146.72;51.15
40994;BME280;26722;43.212;27.932;2023-02-12T07:23:03;55304.00;;;-146.72;51.10
40994;BME280;26722;43.212;27.932;2023-02-12T07:25:28;55306.09;;;-146.72;50.94
40994;BME280;26722;43.212;27.932;2023-02-12T07:27:53;55306.09;;;-146.72;50.93
40994;BME280;26722;43.212;27.932;2023-02-12T07:30:19;55306.09;;;-146.72;50.97
40994;BME280;26722;43.212;27.932;2023-02-12T07:32:44;55304.00;;;-146.72;50.96
40994;BME280;26722;43.212;27.932;2023-02-12T07:35:10;55291.34;;;-146.72;50.93
40994;BME280;26722;43.212;27.932;2023-02-12T07:37:35;55318.78;;;-146.72;50.54
40994;BME280;26722;43.212;27.932;2023-02-12T07:40:01;55285.00;;;-146.72;50.30
40994;BME280;26722;43.212;27.932;2023-02-12T07:42:26;55301.88;;;-146.72;50.30
40994;BME280;26722;43.212;27.932;2023-02-12T07:44:53;55285.00;;;-146.72;50.21
40994;BME280;26722;43.212;27.932;2023-02-12T07:47:18;55280.78;;;-146.72;49.73
40994;BME280;26722;43.212;27.932;2023-02-12T07:49:44;55274.44;;;-146.72;49.50
40994;BME280;26722;43.212;27.932;2023-02-12T07:52:09;55291.34;;;-146.72;49.13
40994;BME280;26722;43.212;27.932;2023-02-12T07:54:35;55266.00;;;-146.72;48.40
40994;BME280;26722;43.212;27.932;2023-02-12T07:57:00;55297.66;;;-146.72;48.20
40994;BME280;26722;43.212;27.932;2023-02-12T07:59:26;55268.09;;;-146.72;48.05
40994;BME280;26722;43.212;27.932;2023-02-12T08:01:52;55257.56;;;-146.72;47.85
40994;BME280;26722;43.212;27.932;2023-02-12T08:04:20;55257.56;;;-146.72;47.62
40994;BME280;26722;43.212;27.932;2023-02-12T08:06:47;55259.66;;;-146.72;47.54
40994;BME280;26722;43.212;27.932;2023-02-12T08:09:18;55257.56;;;-146.72;46.93
40994;BME280;26722;43.212;27.932;2023-02-12T08:11:45;55255.44;;;-146.72;46.80
40994;BME280;26722;43.212;27.932;2023-02-12T08:14:12;55280.78;;;-146.72;46.31
40994;BME280;26722;43.212;27.932;2023-02-12T08:16:39;55270.22;;;-146.72;46.62
40994;BME280;26722;43.212;27.932;2023-02-12T08:19:06;55242.78;;;-146.72;45.94
40994;BME280;26722;43.212;27.932;2023-02-12T08:21:31;55257.56;;;-146.72;45.99
40994;BME280;26722;43.212;27.932;2023-02-12T08:23:57;55263.88;;;-146.72;45.85
40994;BME280;26722;43.212;27.932;2023-02-12T08:26:25;55255.44;;;-146.72;45.80
40994;BME280;26722;43.212;27.932;2023-02-12T08:28:55;55242.78;;;-146.72;45.99
40994;BME280;26722;43.212;27.932;2023-02-12T08:31:25;55257.56;;;-146.72;46.25
40994;BME280;26722;43.212;27.932;2023-02-12T08:33:52;55293.44;;;-146.72;46.07
40994;BME280;26722;43.212;27.932;2023-02-12T08:36:21;55253.31;;;-146.72;46.46
40994;BME280;26722;43.212;27.932;2023-02-12T08:38:47;55236.44;;;-146.72;46.01
40994;BME280;26722;43.212;27.932;2023-02-12T08:43:44;55236.44;;;-146.72;45.43
40994;BME280;26722;43.212;27.932;2023-02-12T08:46:18;55266.00;;;-146.72;45.46
40994;BME280;26722;43.212;27.932;2023-02-12T08:48:44;55244.88;;;-146.72;45.51
40994;BME280;26722;43.212;27.932;2023-02-12T08:53:41;55251.22;;;-146.72;45.12
40994;BME280;26722;43.212;27.932;2023-02-12T08:56:09;55263.88;;;-146.72;45.05
40994;BME280;26722;43.212;27.932;2023-02-12T08:58:36;55225.88;;;-146.72;44.89
40994;BME280;26722;43.212;27.932;2023-02-12T09:01:02;55221.66;;;-146.72;44.51
40994;BME280;26722;43.212;27.932;2023-02-12T09:03:28;55221.66;;;-146.72;44.10
40994;BME280;26722;43.212;27.932;2023-02-12T09:05:54;55230.09;;;-146.72;43.96
40994;BME280;26722;43.212;27.932;2023-02-12T09:08:19;55217.44;;;-146.72;44.00
40994;BME280;26722;43.212;27.932;2023-02-12T09:10:45;55247.00;;;-146.72;44.32
40994;BME280;26722;43.212;27.932;2023-02-12T09:13:12;55234.31;;;-146.72;44.14
40994;BME280;26722;43.212;27.932;2023-02-12T09:15:40;55230.09;;;-146.72;44.19
40994;BME280;26722;43.212;27.932;2023-02-12T09:18:07;55236.44;;;-146.72;44.14
40994;BME280;26722;43.212;27.932;2023-02-12T09:20:36;55234.31;;;-146.72;43.74
40994;BME280;26722;43.212;27.932;2023-02-12T09:23:03;55238.53;;;-146.72;43.99
40994;BME280;26722;43.212;27.932;2023-02-12T09:25:28;55217.44;;;-146.72;43.97
40994;BME280;26722;43.212;27.932;2023-02-12T09:27:54;55238.53;;;-146.72;43.94
40994;BME280;26722;43.212;27.932;2023-02-12T09:30:21;55221.66;;;-146.72;43.71
40994;BME280;26722;43.212;27.932;2023-02-12T09:32:46;55228.00;;;-146.72;44.39
40994;BME280;26722;43.212;27.932;2023-02-12T09:35:12;55236.44;;;-146.72;44.40
40994;BME280;26722;43.212;27.932;2023-02-12T09:37:38;55213.22;;;-146.72;43.72
40994;BME280;26722;43.212;27.932;2023-02-12T09:45:38;55219.53;;;-146.72;42.79
40994;BME280;26722;43.212;27.932;2023-02-12T09:50:54;55209.00;;;-146.72;43.32
40994;BME280;26722;43.212;27.932;2023-02-12T09:53:24;55198.44;;;-146.72;43.59
40994;BME280;26722;43.212;27.932;2023-02-12T09:55:52;55217.44;;;-146.72;43.88
40994;BME280;26722;43.212;27.932;2023-02-12T09:58:41;55219.53;;;-146.72;44.73
40994;BME280;26722;43.212;27.932;2023-02-12T10:01:12;55215.31;;;-146.72;45.55
40994;BME280;26722;43.212;27.932;2023-02-12T10:03:38;55232.22;;;-146.72;46.17
40994;BME280;26722;43.212;27.932;2023-02-12T10:06:16;55213.22;;;-146.72;46.94
40994;BME280;26722;43.212;27.932;2023-02-12T10:25:45;55238.53;;;-146.72;47.36
40994;BME280;26722;43.212;27.932;2023-02-12T10:28:27;55234.31;;;-146.72;47.41
40994;BME280;26722;43.212;27.932;2023-02-12T10:30:58;55219.53;;;-146.72;47.14
40994;BME280;26722;43.212;27.932;2023-02-12T10:33:35;55213.22;;;-146.72;47.06
40994;BME280;26722;43.212;27.932;2023-02-12T10:36:24;55225.88;;;-146.72;46.94
40994;BME280;26722;43.212;27.932;2023-02-12T10:39:00;55221.66;;;-146.72;46.97
40994;BME280;26722;43.212;27.932;2023-02-12T10:41:27;55234.31;;;-146.72;46.97
40994;BME280;26722;43.212;27.932;2023-02-12T10:43:53;55221.66;;;-146.72;47.11
40994;BME280;26722;43.212;27.932;2023-02-12T10:46:19;55244.88;;;-146.72;47.13
40994;BME280;26722;43.212;27.932;2023-02-12T10:48:48;55223.78;;;-146.72;47.24
40994;BME280;26722;43.212;27.932;2023-02-12T10:54:38;55230.09;;;-146.72;46.84
40994;BME280;26722;43.212;27.932;2023-02-12T10:59:32;55238.53;;;-146.72;46.70
40994;BME280;26722;43.212;27.932;2023-02-12T11:01:58;55234.31;;;-146.72;46.88
40994;BME280;26722;43.212;27.932;2023-02-12T11:04:29;55223.78;;;-146.72;46.69
40994;BME280;26722;43.212;27.932;2023-02-12T11:07:05;55223.78;;;-146.72;46.53
40994;BME280;26722;43.212;27.932;2023-02-12T11:09:36;55225.88;;;-146.72;46.53
40994;BME280;26722;43.212;27.932;2023-02-12T11:12:18;55228.00;;;-146.72;46.23
40994;BME280;26722;43.212;27.932;2023-02-12T11:15:17;55225.88;;;-146.72;46.34
40994;BME280;26722;43.212;27.932;2023-02-12T11:17:46;55221.66;;;-146.72;46.48
40994;BME280;26722;43.212;27.932;2023-02-12T11:20:21;55244.88;;;-146.72;46.61
40994;BME280;26722;43.212;27.932;2023-02-12T11:23:02;55221.66;;;-146.72;46.92
40994;BME280;26722;43.212;27.932;2023-02-12T11:25:33;55221.66;;;-146.72;46.99
40994;BME280;26722;43.212;27.932;2023-02-12T11:30:48;55263.88;;;-146.72;46.42
40994;BME280;26722;43.212;27.932;2023-02-12T11:33:34;55232.22;;;-146.72;45.80
40994;BME280;26722;43.212;27.932;2023-02-12T11:36:22;55234.31;;;-146.72;45.13
40994;BME280;26722;43.212;27.932;2023-02-12T11:38:53;55209.00;;;-146.72;44.77
40994;BME280;26722;43.212;27.932;2023-02-12T11:43:44;55209.00;;;-146.72;44.40
40994;BME280;26722;43.212;27.932;2023-02-12T11:46:21;55251.22;;;-146.72;44.84
40994;BME280;26722;43.212;27.932;2023-02-12T11:48:48;55234.31;;;-146.72;44.37
40994;BME280;26722;43.212;27.932;2023-02-12T11:51:23;55228.00;;;-146.72;43.87
40994;BME280;26722;43.212;27.932;2023-02-12T11:53:51;55232.22;;;-146.72;43.44
40994;BME280;26722;43.212;27.932;2023-02-12T11:56:19;55228.00;;;-146.72;43.48
40994;BME280;26722;43.212;27.932;2023-02-12T11:58:46;55228.00;;;-146.72;43.85
40994;BME280;26722;43.212;27.932;2023-02-12T12:01:17;55225.88;;;-146.72;44.19
40994;BME280;26722;43.212;27.932;2023-02-12T12:04:03;55234.31;;;-146.72;44.57
40994;BME280;26722;43.212;27.932;2023-02-12T12:09:48;55236.44;;;-146.72;45.09
40994;BME280;26722;43.212;27.932;2023-02-12T12:12:23;55232.22;;;-146.72;45.67
40994;BME280;26722;43.212;27.932;2023-02-12T12:14:59;55234.31;;;-146.72;45.98
40994;BME280;26722;43.212;27.932;2023-02-12T12:17:53;55230.09;;;-146.72;46.66
40994;BME280;26722;43.212;27.932;2023-02-12T12:20:46;55268.09;;;-146.72;46.83
40994;BME280;26722;43.212;27.932;2023-02-12T12:23:21;55238.53;;;-146.72;47.35
40994;BME280;26722;43.212;27.932;2023-02-12T12:25:56;55240.66;;;-146.72;47.59
40994;BME280;26722;43.212;27.932;2023-02-12T12:28:47;55242.78;;;-146.72;47.87
40994;BME280;26722;43.212;27.932;2023-02-12T12:31:26;55251.22;;;-146.72;48.24
40994;BME280;26722;43.212;27.932;2023-02-12T12:34:02;55238.53;;;-146.72;48.27
40994;BME280;26722;43.212;27.932;2023-02-12T12:39:20;55268.09;;;-146.72;48.52
40994;BME280;26722;43.212;27.932;2023-02-12T12:50:51;55244.88;;;-146.72;49.59
40994;BME280;26722;43.212;27.932;2023-02-12T13:15:42;55230.09;;;-146.72;50.70
40994;BME280;26722;43.212;27.932;2023-02-12T13:18:16;55257.56;;;-146.72;51.19
40994;BME280;26722;43.212;27.932;2023-02-12T13:26:37;55247.00;;;-146.72;52.59
40994;BME280;26722;43.212;27.932;2023-02-12T13:29:20;55255.44;;;-146.72;52.81
40994;BME280;26722;43.212;27.932;2023-02-12T13:31:54;55242.78;;;-146.72;52.55
40994;BME280;26722;43.212;27.932;2023-02-12T13:34:22;55236.44;;;-146.72;52.57
40994;BME280;26722;43.212;27.932;2023-02-12T13:36:53;55251.22;;;-146.72;53.26
40994;BME280;26722;43.212;27.932;2023-02-12T13:39:37;55238.53;;;-146.72;53.23
40994;BME280;26722;43.212;27.932;2023-02-12T13:47:28;55251.22;;;-146.72;53.70
40994;BME280;26722;43.212;27.932;2023-02-12T13:50:28;55272.31;;;-146.72;53.56
40994;BME280;26722;43.212;27.932;2023-02-12T13:55:32;55244.88;;;-146.72;54.38
40994;BME280;26722;43.212;27.932;2023-02-12T14:00:59;55225.88;;;-146.72;55.41
40994;BME280;26722;43.212;27.932;2023-02-12T14:03:26;55242.78;;;-146.72;55.57
40994;BME280;26722;43.212;27.932;2023-02-12T14:06:18;55259.66;;;-146.72;55.96
40994;BME280;26722;43.212;27.932;2023-02-12T14:08:53;55249.09;;;-146.72;56.05
40994;BME280;26722;43.212;27.932;2023-02-12T14:11:32;55251.22;;;-146.72;56.61
40994;BME280;26722;43.212;27.932;2023-02-12T14:14:00;55238.53;;;-146.72;56.67
40994;BME280;26722;43.212;27.932;2023-02-12T14:21:58;55263.88;;;-146.72;58.72
40994;BME280;26722;43.212;27.932;2023-02-12T14:27:06;55232.22;;;-146.72;59.75
40994;BME280;26722;43.212;27.932;2023-02-12T14:30:43;55240.66;;;-146.72;60.17
40994;BME280;26722;43.212;27.932;2023-02-12T14:37:50;55259.66;;;-146.72;61.22
40994;BME280;26722;43.212;27.932;2023-02-12T14:40:42;55242.78;;;-146.72;60.96
40994;BME280;26722;43.212;27.932;2023-02-12T14:43:32;55268.09;;;-146.72;60.63
40994;BME280;26722;43.212;27.932;2023-02-12T14:49:03;55238.53;;;-146.72;59.98
40994;BME280;26722;43.212;27.932;2023-02-12T14:51:35;55232.22;;;-146.72;59.23
40994;BME280;26722;43.212;27.932;2023-02-12T14:54:13;55255.44;;;-146.72;59.32
40994;BME280;26722;43.212;27.932;2023-02-12T14:56:45;55261.78;;;-146.72;59.21
40994;BME280;26722;43.212;27.932;2023-02-12T14:59:18;55297.66;;;-146.72;59.12
40994;BME280;26722;43.212;27.932;2023-02-12T15:01:46;55272.31;;;-146.72;58.84
40994;BME280;26722;43.212;27.932;2023-02-12T15:04:23;55268.09;;;-146.72;58.62
40994;BME280;26722;43.212;27.932;2023-02-12T15:06:55;55261.78;;;-146.72;58.44
40994;BME280;26722;43.212;27.932;2023-02-12T15:09:52;55238.53;;;-146.72;58.07
40994;BME280;26722;43.212;27.932;2023-02-12T15:15:43;55268.09;;;-146.72;58.32
40994;BME280;26722;43.212;27.932;2023-02-12T15:21:13;55259.66;;;-146.72;57.43
40994;BME280;26722;43.212;27.932;2023-02-12T15:23:43;55238.53;;;-146.72;57.53
40994;BME280;26722;43.212;27.932;2023-02-12T15:26:17;55236.44;;;-146.72;57.38